createdAt,value
2017-09-10T00:02:21.007Z,5.67
2017-09-10T00:04:49.019Z,8.20
2017-09-10T00:07:16.516Z,4.85
2017-09-10T00:09:44.047Z,4.60
2017-09-10T00:12:11.544Z,3.03
2017-09-10T00:14:39.128Z,4.03
2017-09-10T00:17:06.623Z,5.87
2017-09-10T00:19:34.215Z,6.03
2017-09-10T00:22:01.739Z,3.10
2017-09-10T00:24:29.242Z,6.30
2017-09-10T00:26:58.268Z,3.70
2017-09-10T00:29:25.854Z,5.10
2017-09-10T00:31:54.200Z,5.53
2017-09-10T00:34:21.908Z,6.28
2017-09-10T00:36:49.429Z,4.63
2017-09-10T00:39:18.606Z,3.47
2017-09-10T00:41:46.819Z,5.05
2017-09-10T00:44:14.326Z,4.90
2017-09-10T00:46:41.832Z,3.55
2017-09-10T00:49:09.340Z,3.57
2017-09-10T00:51:36.835Z,5.22
2017-09-10T00:54:04.420Z,2.33
2017-09-10T00:56:31.939Z,4.70
2017-09-10T00:59:00.138Z,14.00
2017-09-10T01:01:27.643Z,3.43
2017-09-10T01:03:55.490Z,5.80
2017-09-10T01:06:23.012Z,4.40
2017-09-10T01:08:50.541Z,4.30
2017-09-10T01:11:18.038Z,4.20
2017-09-10T01:13:45.856Z,2.90
2017-09-10T01:16:13.543Z,3.50
2017-09-10T01:18:41.056Z,5.20
2017-09-10T01:21:08.559Z,4.27
2017-09-10T01:23:36.076Z,5.28
2017-09-10T01:26:03.798Z,5.00
2017-09-10T01:28:33.786Z,3.70
2017-09-10T01:31:01.318Z,2.90
2017-09-10T01:33:28.815Z,5.23
2017-09-10T01:35:57.692Z,4.57
2017-09-10T01:38:25.227Z,4.63
2017-09-10T01:40:52.777Z,3.40
2017-09-10T01:43:20.468Z,2.55
2017-09-10T01:45:48.007Z,2.73
2017-09-10T01:48:15.515Z,3.08
2017-09-10T01:50:43.026Z,4.20
2017-09-10T01:53:11.495Z,2.23
2017-09-10T01:55:39.932Z,2.50
2017-09-10T01:58:07.479Z,2.90
2017-09-10T02:00:35.958Z,3.47
2017-09-10T02:03:11.542Z,2.85
2017-09-10T02:05:39.071Z,3.67
2017-09-10T02:08:06.814Z,2.50
2017-09-10T02:10:34.348Z,2.90
2017-09-10T02:13:01.844Z,2.00
2017-09-10T02:15:29.358Z,9.97
2017-09-10T02:17:56.859Z,6.70
2017-09-10T02:20:28.608Z,3.53
2017-09-10T02:22:56.280Z,3.30
2017-09-10T02:25:23.843Z,1.63
2017-09-10T02:27:51.334Z,2.37
2017-09-10T02:30:18.884Z,2.35
2017-09-10T02:32:46.599Z,3.42
2017-09-10T02:35:14.104Z,2.12
2017-09-10T02:37:42.526Z,3.00
2017-09-10T02:40:10.927Z,6.00
2017-09-10T02:42:38.693Z,3.20
2017-09-10T02:45:06.191Z,2.35
2017-09-10T02:47:34.603Z,3.00
2017-09-10T02:50:02.884Z,3.67
2017-09-10T02:52:31.180Z,4.13
2017-09-10T02:54:59.172Z,2.53
2017-09-10T02:57:26.678Z,3.03
2017-09-10T02:59:54.188Z,3.63
2017-09-10T03:02:21.715Z,3.90
2017-09-10T03:04:49.992Z,3.47
2017-09-10T03:07:17.767Z,2.55
2017-09-10T03:09:46.187Z,2.70
2017-09-10T03:12:13.703Z,3.77
2017-09-10T03:14:42.002Z,4.30
2017-09-10T03:17:09.503Z,2.27
2017-09-10T03:19:41.550Z,2.40
2017-09-10T03:22:09.047Z,2.60
2017-09-10T03:24:38.280Z,2.67
2017-09-10T03:27:05.824Z,4.30
2017-09-10T03:29:33.517Z,4.95
2017-09-10T03:32:01.011Z,3.73
2017-09-10T03:34:28.756Z,1.73
2017-09-10T03:36:56.479Z,2.08
2017-09-10T03:39:23.975Z,2.70
2017-09-10T03:41:51.484Z,3.58
2017-09-10T03:44:19.020Z,2.67
2017-09-10T03:46:46.515Z,3.63
2017-09-10T03:49:14.823Z,1.50
2017-09-10T03:51:42.319Z,2.40
2017-09-10T03:54:10.750Z,3.30
2017-09-10T03:56:38.326Z,3.20
2017-09-10T03:59:05.830Z,2.13
2017-09-10T04:01:34.175Z,2.60
2017-09-10T04:04:01.675Z,2.07
2017-09-10T04:06:29.911Z,1.70
2017-09-10T04:08:57.450Z,1.70
2017-09-10T04:11:24.948Z,3.20
2017-09-10T04:13:52.451Z,2.67
2017-09-10T04:16:20.115Z,4.03
2017-09-10T04:18:47.655Z,2.00
2017-09-10T04:21:15.923Z,2.13
2017-09-10T04:23:43.651Z,3.20
2017-09-10T04:26:11.362Z,2.00
2017-09-10T04:28:39.627Z,2.30
2017-09-10T04:31:08.868Z,4.25
2017-09-10T04:33:36.373Z,2.00
2017-09-10T04:36:03.877Z,3.13
2017-09-10T04:38:31.385Z,2.60
2017-09-10T04:40:58.991Z,2.27
2017-09-10T04:43:26.618Z,2.60
2017-09-10T04:45:54.155Z,3.33
2017-09-10T04:48:22.904Z,1.42
2017-09-10T04:50:50.394Z,4.00
2017-09-10T04:53:17.896Z,1.83
2017-09-10T04:55:47.084Z,3.97
2017-09-10T04:58:15.846Z,1.30
2017-09-10T05:00:43.387Z,2.73
2017-09-10T05:03:11.712Z,1.80
2017-09-10T05:05:39.223Z,3.70
2017-09-10T05:08:06.719Z,3.37
2017-09-10T05:10:34.312Z,1.50
2017-09-10T05:13:01.803Z,2.20
2017-09-10T05:15:29.331Z,2.40
2017-09-10T05:17:57.631Z,2.40
2017-09-10T05:20:25.131Z,2.40
2017-09-10T05:22:52.687Z,3.85
2017-09-10T05:25:20.187Z,2.87
2017-09-10T05:27:48.598Z,1.67
2017-09-10T05:30:16.840Z,1.80
2017-09-10T05:32:45.141Z,1.65
2017-09-10T05:35:12.665Z,1.50
2017-09-10T05:37:40.922Z,1.30
2017-09-10T05:40:09.763Z,4.40
2017-09-10T05:42:37.344Z,5.75
2017-09-10T05:45:04.884Z,3.90
2017-09-10T05:47:32.380Z,9.30
2017-09-10T05:50:00.867Z,4.00
2017-09-10T05:52:28.375Z,6.07
2017-09-10T05:54:55.943Z,5.10
2017-09-10T05:57:23.741Z,3.83
2017-09-10T05:59:51.494Z,3.80
2017-09-10T06:02:19.171Z,5.10
2017-09-10T06:04:47.271Z,3.70
2017-09-10T06:07:14.789Z,2.90
2017-09-10T06:09:42.319Z,6.18
2017-09-10T06:12:10.599Z,10.40
2017-09-10T06:14:38.104Z,3.95
2017-09-10T06:17:06.587Z,3.50
2017-09-10T06:19:34.134Z,3.80
2017-09-10T06:22:01.699Z,6.07
2017-09-10T06:24:29.207Z,5.85
2017-09-10T06:26:56.903Z,17.33
2017-09-10T06:29:25.336Z,14.67
2017-09-10T06:31:52.845Z,28.83
2017-09-10T06:34:20.392Z,14.77
2017-09-10T06:36:47.918Z,11.25
2017-09-10T06:39:16.599Z,8.23
2017-09-10T06:41:44.441Z,9.18
2017-09-10T06:44:11.985Z,7.83
2017-09-10T06:46:39.583Z,7.33
2017-09-10T06:49:07.127Z,11.53
2017-09-10T06:51:34.671Z,10.00
2017-09-10T06:54:02.596Z,13.87
2017-09-10T06:56:33.144Z,14.27
2017-09-10T06:59:00.691Z,12.23
2017-09-10T07:01:28.983Z,8.35
2017-09-10T07:03:56.490Z,8.87
2017-09-10T07:06:24.085Z,23.48
2017-09-10T07:08:51.596Z,11.97
2017-09-10T07:11:19.095Z,8.77
2017-09-10T07:13:49.311Z,10.38
2017-09-10T07:16:18.307Z,7.25
2017-09-10T07:18:46.071Z,14.52
2017-09-10T07:21:13.571Z,6.70
2017-09-10T07:23:47.608Z,6.90
2017-09-10T07:26:15.125Z,5.00
2017-09-10T07:28:42.975Z,5.50
2017-09-10T07:31:10.499Z,4.93
2017-09-10T07:33:38.011Z,5.50
2017-09-10T07:36:06.318Z,5.40
2017-09-10T07:38:34.115Z,4.30
2017-09-10T07:41:04.743Z,3.90
2017-09-10T07:43:32.320Z,6.30
2017-09-10T07:45:59.818Z,7.83
2017-09-10T07:48:27.319Z,5.70
2017-09-10T07:50:54.973Z,2.60
2017-09-10T07:53:22.490Z,4.57
2017-09-10T07:55:50.029Z,5.63
2017-09-10T07:58:17.912Z,8.23
2017-09-10T08:00:46.536Z,5.60
2017-09-10T08:03:14.093Z,2.73
2017-09-10T08:05:41.667Z,3.20
2017-09-10T08:08:09.221Z,4.27
2017-09-10T08:10:36.724Z,3.73
2017-09-10T08:13:04.281Z,4.40
2017-09-10T08:15:31.839Z,3.73
2017-09-10T08:17:59.779Z,3.67
2017-09-10T08:20:27.299Z,2.83
2017-09-10T08:22:54.795Z,2.80
2017-09-10T08:25:22.299Z,7.03
2017-09-10T08:27:50.683Z,9.33
2017-09-10T08:30:18.615Z,3.97
2017-09-10T08:32:46.159Z,3.08
2017-09-10T08:35:13.734Z,8.03
2017-09-10T08:37:41.326Z,7.13
2017-09-10T08:40:08.924Z,4.00
2017-09-10T08:42:36.440Z,1.67
2017-09-10T08:45:03.989Z,1.63
2017-09-10T08:47:31.535Z,3.23
2017-09-10T08:49:59.049Z,1.83
2017-09-10T08:52:26.995Z,5.87
2017-09-10T08:54:54.501Z,2.30
2017-09-10T08:57:23.190Z,3.75
2017-09-10T08:59:51.389Z,6.30
2017-09-10T09:02:18.972Z,6.30
2017-09-10T09:04:46.480Z,2.40
2017-09-10T09:07:14.505Z,7.93
2017-09-10T09:09:42.008Z,7.07
2017-09-10T09:12:10.295Z,6.07
2017-09-10T09:14:37.801Z,3.08
2017-09-10T09:17:05.339Z,4.80
2017-09-10T09:19:32.907Z,6.40
2017-09-10T09:22:00.414Z,3.77
2017-09-10T09:24:28.270Z,3.17
2017-09-10T09:26:55.835Z,5.90
2017-09-10T09:29:25.019Z,6.10
2017-09-10T09:31:52.567Z,2.65
2017-09-10T09:34:20.063Z,4.73
2017-09-10T09:36:48.528Z,5.18
2017-09-10T09:39:16.808Z,2.27
2017-09-10T09:41:44.755Z,2.28
2017-09-10T09:44:12.261Z,3.50
2017-09-10T09:46:39.795Z,3.67
2017-09-10T09:49:08.995Z,4.85
2017-09-10T09:51:38.223Z,2.78
2017-09-10T09:54:06.555Z,10.70
2017-09-10T09:56:34.112Z,3.20
2017-09-10T09:59:01.624Z,5.07
2017-09-10T10:01:30.795Z,3.27
2017-09-10T10:03:58.355Z,6.00
2017-09-10T10:06:25.856Z,5.23
2017-09-10T10:08:53.419Z,4.80
2017-09-10T10:11:20.935Z,6.20
2017-09-10T10:13:48.481Z,4.30
2017-09-10T10:16:17.410Z,6.95
2017-09-10T10:18:44.906Z,6.57
2017-09-10T10:21:12.455Z,4.03
2017-09-10T10:23:40.046Z,3.50
2017-09-10T10:26:07.586Z,1.83
2017-09-10T10:28:36.035Z,4.20
2017-09-10T10:31:03.566Z,2.17
2017-09-10T10:33:31.139Z,2.50
2017-09-10T10:35:58.675Z,5.32
2017-09-10T10:38:26.191Z,7.03
2017-09-10T10:40:53.715Z,4.50
2017-09-10T10:43:21.273Z,3.00
2017-09-10T10:45:49.489Z,13.23
2017-09-10T10:48:17.006Z,3.83
2017-09-10T10:50:45.327Z,3.80
2017-09-10T10:53:12.847Z,2.72
2017-09-10T10:55:40.822Z,8.37
2017-09-10T10:58:08.885Z,2.28
2017-09-10T11:00:36.645Z,3.63
2017-09-10T11:03:04.144Z,1.93
2017-09-10T11:05:31.642Z,3.80
2017-09-10T11:07:59.172Z,10.70
2017-09-10T11:10:26.681Z,5.30
2017-09-10T11:12:55.059Z,4.37
2017-09-10T11:15:23.319Z,13.53
2017-09-10T11:17:50.823Z,4.47
2017-09-10T11:20:18.767Z,3.83
2017-09-10T11:22:46.266Z,4.60
2017-09-10T11:25:13.813Z,3.80
2017-09-10T11:27:42.333Z,8.27
2017-09-10T11:30:10.827Z,13.40
2017-09-10T11:32:38.416Z,12.07
2017-09-10T11:35:07.234Z,17.17
2017-09-10T11:37:35.591Z,11.53
2017-09-10T11:40:03.127Z,3.57
2017-09-10T11:42:31.124Z,7.12
2017-09-10T11:44:58.669Z,10.75
2017-09-10T11:47:26.959Z,4.12
2017-09-10T11:49:56.307Z,7.60
2017-09-10T11:52:23.859Z,10.77
2017-09-10T11:54:51.375Z,9.27
2017-09-10T11:57:18.914Z,4.05
2017-09-10T11:59:46.459Z,5.20
2017-09-10T12:02:15.363Z,3.90
2017-09-10T12:04:42.896Z,6.07
2017-09-10T12:07:10.431Z,1.93
2017-09-10T12:09:37.960Z,6.13
2017-09-10T12:12:05.469Z,3.12
2017-09-10T12:14:33.897Z,7.30
2017-09-10T12:17:01.407Z,11.85
2017-09-10T12:19:28.909Z,5.00
2017-09-10T12:21:57.211Z,2.70
2017-09-10T12:24:24.722Z,5.83
2017-09-10T12:26:52.920Z,4.97
2017-09-10T12:29:20.460Z,5.40
2017-09-10T12:31:47.971Z,2.40
2017-09-10T12:34:15.509Z,2.80
2017-09-10T12:36:43.800Z,5.05
2017-09-10T12:39:11.314Z,3.25
2017-09-10T12:41:39.325Z,3.67
2017-09-10T12:44:06.856Z,3.83
2017-09-10T12:46:34.955Z,2.80
2017-09-10T12:49:03.233Z,1.67
2017-09-10T12:51:32.130Z,2.17
2017-09-10T12:53:59.691Z,4.20
2017-09-10T12:56:27.192Z,5.90
2017-09-10T12:58:54.723Z,4.70
2017-09-10T13:01:22.231Z,1.48
2017-09-10T13:03:50.707Z,2.06
2017-09-10T13:06:18.242Z,5.50
2017-09-10T13:08:45.811Z,4.07
2017-09-10T13:11:13.316Z,3.17
2017-09-10T13:13:40.876Z,5.13
2017-09-10T13:16:09.324Z,2.37
2017-09-10T13:18:36.942Z,3.10
2017-09-10T13:21:04.496Z,4.40
2017-09-10T13:23:32.780Z,2.03
2017-09-10T13:26:00.281Z,2.13
2017-09-10T13:28:28.785Z,4.43
2017-09-10T13:30:57.091Z,1.93
2017-09-10T13:33:24.595Z,1.77
2017-09-10T13:35:52.107Z,3.15
2017-09-10T13:38:20.383Z,2.13
2017-09-10T13:40:47.923Z,3.62
2017-09-10T13:43:15.440Z,2.50
2017-09-10T13:45:42.962Z,2.93
2017-09-10T13:48:14.246Z,11.60
2017-09-10T13:50:41.783Z,2.05
2017-09-10T13:53:09.287Z,4.00
2017-09-10T13:55:37.448Z,3.97
2017-09-10T13:58:04.955Z,1.60
2017-09-10T14:00:32.459Z,1.93
2017-09-10T14:02:59.983Z,5.45
2017-09-10T14:05:27.485Z,3.37
2017-09-10T14:07:54.979Z,2.37
2017-09-10T14:10:22.561Z,2.30
2017-09-10T14:12:50.756Z,1.30
2017-09-10T14:15:21.217Z,1.30
2017-09-10T14:17:48.770Z,2.30
2017-09-10T14:20:16.297Z,1.07
2017-09-10T14:22:45.125Z,5.37
2017-09-10T14:25:12.631Z,2.13
2017-09-10T14:27:40.238Z,2.70
2017-09-10T14:30:07.787Z,1.60
2017-09-10T14:32:35.371Z,3.33
2017-09-10T14:35:02.887Z,1.83
2017-09-10T14:37:30.391Z,4.17
2017-09-10T14:39:57.917Z,1.70
2017-09-10T14:42:25.433Z,3.30
2017-09-10T14:44:52.927Z,1.00
2017-09-10T14:47:24.299Z,1.13
2017-09-10T14:49:51.834Z,2.27
2017-09-10T14:52:20.199Z,2.17
2017-09-10T14:54:48.079Z,13.27
2017-09-10T14:57:15.600Z,9.33
2017-09-10T14:59:43.479Z,2.40
2017-09-10T15:02:15.077Z,7.23
2017-09-10T15:04:43.018Z,5.47
2017-09-10T15:07:11.292Z,5.20
2017-09-10T15:09:38.836Z,8.00
2017-09-10T15:12:06.356Z,5.20
2017-09-10T15:14:33.893Z,5.80
2017-09-10T15:17:01.402Z,5.00
2017-09-10T15:19:29.724Z,7.50
2017-09-10T15:21:57.332Z,12.10
2017-09-10T15:24:24.847Z,12.85
2017-09-10T15:26:52.482Z,8.03
2017-09-10T15:29:19.988Z,8.75
2017-09-10T15:31:47.555Z,5.47
2017-09-10T15:34:15.114Z,2.90
2017-09-10T15:36:42.732Z,5.80
2017-09-10T15:39:11.952Z,3.55
2017-09-10T15:41:39.554Z,2.90
2017-09-10T15:44:07.123Z,11.50
2017-09-10T15:46:35.588Z,5.97
2017-09-10T15:49:03.103Z,4.18
2017-09-10T15:51:31.400Z,4.93
2017-09-10T15:53:58.959Z,7.37
2017-09-10T15:56:26.494Z,4.93
2017-09-10T15:58:55.695Z,2.08
2017-09-10T16:01:23.339Z,6.00
2017-09-10T16:03:50.830Z,9.50
2017-09-10T16:06:20.031Z,4.85
2017-09-10T16:08:47.548Z,5.60
2017-09-10T16:11:15.038Z,3.07
2017-09-10T16:13:42.576Z,10.27
2017-09-10T16:16:10.276Z,7.47
2017-09-10T16:18:37.776Z,6.05
2017-09-10T16:21:05.279Z,8.33
2017-09-10T16:23:33.211Z,10.20
2017-09-10T16:26:00.730Z,9.40
2017-09-10T16:28:28.234Z,7.90
2017-09-10T16:30:55.729Z,9.65
2017-09-10T16:33:24.034Z,12.20
2017-09-10T16:35:52.163Z,9.30
2017-09-10T16:38:19.676Z,11.80
2017-09-10T16:40:47.613Z,16.17
2017-09-10T16:43:15.119Z,13.50
2017-09-10T16:45:42.626Z,17.83
2017-09-10T16:48:13.206Z,10.96
2017-09-10T16:50:41.487Z,13.52
2017-09-10T16:53:09.010Z,10.27
2017-09-10T16:55:37.319Z,10.47
2017-09-10T16:58:04.841Z,9.60
2017-09-10T17:00:33.124Z,8.35
2017-09-10T17:03:00.615Z,8.03
2017-09-10T17:05:28.181Z,13.47
2017-09-10T17:07:55.683Z,13.63
2017-09-10T17:10:23.195Z,18.60
2017-09-10T17:12:50.747Z,15.27
2017-09-10T17:15:18.252Z,12.10
2017-09-10T17:17:45.786Z,12.48
2017-09-10T17:20:14.115Z,18.33
2017-09-10T17:22:48.195Z,10.90
2017-09-10T17:25:15.767Z,12.63
2017-09-10T17:27:44.405Z,16.80
2017-09-10T17:30:12.495Z,16.65
2017-09-10T17:32:40.008Z,14.52
2017-09-10T17:35:11.555Z,9.98
2017-09-10T17:37:40.373Z,15.07
2017-09-10T17:40:07.875Z,14.20
2017-09-10T17:42:35.387Z,8.73
2017-09-10T17:45:02.936Z,22.33
2017-09-10T17:47:30.451Z,11.30
2017-09-10T17:49:58.968Z,10.63
2017-09-10T17:52:27.251Z,13.10
2017-09-10T17:54:55.528Z,13.70
2017-09-10T17:57:23.588Z,7.70
2017-09-10T17:59:51.111Z,18.77
2017-09-10T18:02:18.607Z,9.90
2017-09-10T18:04:46.871Z,10.82
2017-09-10T18:07:14.491Z,13.55
2017-09-10T18:09:41.994Z,13.07
2017-09-10T18:12:09.552Z,17.63
2017-09-10T18:14:37.552Z,8.00
2017-09-10T18:17:05.042Z,17.23
2017-09-10T18:19:34.562Z,10.37
2017-09-10T18:22:02.915Z,22.60
2017-09-10T18:24:30.488Z,7.10
2017-09-10T18:26:58.051Z,13.10
2017-09-10T18:29:25.571Z,12.97
2017-09-10T18:31:53.085Z,10.87
2017-09-10T18:34:21.349Z,7.40
2017-09-10T18:36:48.886Z,11.37
2017-09-10T18:39:16.388Z,9.93
2017-09-10T18:41:43.951Z,10.60
2017-09-10T18:44:11.515Z,13.82
2017-09-10T18:46:39.030Z,13.90
2017-09-10T18:49:06.567Z,11.13
2017-09-10T18:51:35.975Z,14.93
2017-09-10T18:54:05.555Z,5.77
2017-09-10T18:56:33.097Z,12.13
2017-09-10T18:59:01.096Z,9.18
2017-09-10T19:01:30.338Z,4.95
2017-09-10T19:03:57.869Z,10.53
2017-09-10T19:06:25.441Z,9.65
2017-09-10T19:08:52.959Z,6.12
2017-09-10T19:11:20.631Z,6.20
2017-09-10T19:13:49.078Z,5.50
2017-09-10T19:16:17.082Z,5.10
2017-09-10T19:18:44.684Z,7.77
2017-09-10T19:21:12.198Z,9.07
2017-09-10T19:23:39.710Z,4.60
2017-09-10T19:26:08.852Z,12.20
2017-09-10T19:28:36.798Z,8.82
2017-09-10T19:31:04.364Z,7.40
2017-09-10T19:33:31.887Z,7.40
2017-09-10T19:35:59.414Z,8.33
2017-09-10T19:38:27.341Z,8.48
2017-09-10T19:40:55.628Z,11.20
2017-09-10T19:43:23.172Z,6.78
2017-09-10T19:45:50.680Z,9.05
2017-09-10T19:48:18.289Z,12.30
2017-09-10T19:50:47.139Z,5.93
2017-09-10T19:53:16.352Z,7.65
2017-09-10T19:55:43.852Z,7.00
2017-09-10T19:58:11.856Z,5.30
2017-09-10T20:00:39.380Z,8.43
2017-09-10T20:03:06.929Z,4.10
2017-09-10T20:05:34.440Z,14.20
2017-09-10T20:08:01.961Z,6.43
2017-09-10T20:10:30.135Z,6.00
2017-09-10T20:12:58.574Z,4.57
2017-09-10T20:15:26.904Z,5.10
2017-09-10T20:17:54.591Z,6.12
2017-09-10T20:20:22.125Z,8.40
2017-09-10T20:22:49.684Z,14.53
2017-09-10T20:25:17.175Z,4.83
2017-09-10T20:27:44.708Z,9.00
2017-09-10T20:30:12.218Z,4.60
2017-09-10T20:32:39.722Z,6.20
2017-09-10T20:35:08.201Z,3.10
2017-09-10T20:37:35.766Z,4.00
2017-09-10T20:40:03.279Z,2.90
2017-09-10T20:42:30.829Z,5.43
2017-09-10T20:45:01.962Z,3.55
2017-09-10T20:47:29.478Z,9.52
2017-09-10T20:49:57.785Z,8.57
2017-09-10T20:52:25.329Z,11.97
2017-09-10T20:54:52.868Z,9.00
2017-09-10T20:57:20.374Z,5.80
2017-09-10T20:59:47.893Z,6.03
2017-09-10T21:02:15.419Z,5.13
2017-09-10T21:04:42.919Z,6.83
2017-09-10T21:07:15.502Z,4.30
2017-09-10T21:09:43.013Z,8.23
2017-09-10T21:12:12.211Z,6.62
2017-09-10T21:14:39.803Z,7.37
2017-09-10T21:17:07.308Z,6.50
2017-09-10T21:19:34.889Z,4.60
2017-09-10T21:22:02.395Z,5.07
2017-09-10T21:24:30.403Z,15.45
2017-09-10T21:26:57.913Z,6.60
2017-09-10T21:29:25.415Z,5.30
2017-09-10T21:31:52.932Z,10.37
2017-09-10T21:34:20.455Z,9.70
2017-09-10T21:36:48.733Z,6.20
2017-09-10T21:39:17.015Z,10.90
2017-09-10T21:41:44.591Z,6.10
2017-09-10T21:44:12.091Z,9.20
2017-09-10T21:46:39.640Z,4.90
2017-09-10T21:49:07.183Z,5.50
2017-09-10T21:51:34.691Z,7.87
2017-09-10T21:54:02.197Z,6.53
2017-09-10T21:56:29.738Z,5.10
2017-09-10T21:58:57.940Z,8.85
2017-09-10T22:01:25.463Z,7.67
2017-09-10T22:03:53.882Z,5.40
2017-09-10T22:06:22.305Z,6.20
2017-09-10T22:08:49.836Z,9.30
2017-09-10T22:11:17.357Z,10.63
2017-09-10T22:13:45.707Z,10.40
2017-09-10T22:16:13.260Z,13.70
2017-09-10T22:18:40.826Z,7.30
2017-09-10T22:21:08.318Z,6.00
2017-09-10T22:23:37.511Z,9.20
2017-09-10T22:26:06.711Z,5.03
2017-09-10T22:28:34.259Z,11.73
2017-09-10T22:31:02.575Z,11.93
2017-09-10T22:33:30.680Z,10.47
2017-09-10T22:35:58.236Z,2.03
2017-09-10T22:38:25.743Z,11.23
2017-09-10T22:40:53.271Z,9.60
2017-09-10T22:43:20.775Z,10.43
2017-09-10T22:45:48.276Z,9.63
2017-09-10T22:48:15.771Z,8.70
2017-09-10T22:50:44.958Z,6.50
2017-09-10T22:53:13.995Z,4.82
2017-09-10T22:55:41.505Z,4.20
2017-09-10T22:58:09.125Z,8.35
2017-09-10T23:00:36.628Z,7.50
2017-09-10T23:03:04.223Z,6.77
2017-09-10T23:05:31.778Z,6.93
2017-09-10T23:08:00.055Z,9.20
2017-09-10T23:10:29.295Z,9.77
2017-09-10T23:12:56.806Z,10.53
2017-09-10T23:15:25.127Z,11.50
2017-09-10T23:17:53.310Z,7.03
2017-09-10T23:20:21.197Z,6.60
2017-09-10T23:22:48.716Z,6.90
2017-09-10T23:25:16.619Z,8.80
2017-09-10T23:27:44.184Z,9.20
2017-09-10T23:30:13.199Z,8.73
2017-09-10T23:32:41.590Z,7.00
2017-09-10T23:35:10.267Z,8.73
2017-09-10T23:37:37.771Z,8.43
2017-09-10T23:40:05.303Z,5.17
2017-09-10T23:42:33.611Z,9.23
2017-09-10T23:45:01.909Z,5.55
2017-09-10T23:47:29.444Z,10.10
2017-09-10T23:49:56.941Z,9.53
2017-09-10T23:52:28.236Z,4.50
2017-09-10T23:54:56.703Z,7.93
2017-09-10T23:57:24.211Z,8.10
2017-09-10T23:59:51.725Z,7.53
